Franklin, Michigan
Current Conditions -  °F | °C
As of 11:15 AM on Tuesday 21 Oct 2014 (Local Time) from KVLL Reporting Station
Overcast Overcast  
Wind Chill: 41°   Ceiling: 2600
Heat Index: 47°   Visibility: 10mi
Dew Point: 38°   Wind: 16mph
Humidity: 70%   Direction: 350°N
Pressure: 30.04"   Gusts: 23mph
Location:  42.52°N, 83.31°W
Report Text: KVLL 211515Z AUTO 35014G20KT 10SM OVC026 09/04 A3004 RMK AO2 T00860035
Loading
Personal Weather Stations






























Interactive Weather Map
Tropical Storm Tracking
New forecast layout! Learn more

10-Day Weather Forecast

Advertisements
Track Severe Weather on mobile